Hlavní strana
METAR-TAF:

METAR-TAF

Letiště :

Belleville, Illinois, Spojené státy americké

zeměpisná šířka: 38-33N, zeměpisná délka: 089-51W, výška: 140 m

Aktuální stav počasí

Zpráva byla vytvořena před 1 hodinou a 1 minutami, v 08:56 UTC
Bezvětří
Teplota 13°C
Vlhkost vzduchu 82%
Tlak 1021 hPa
Viditelnost: 16.1 km
Jasno

METAR: KBLV 300856Z AUTO 00000KT 10SM CLR 13/10 A3016 RMK AO2 SLP214 T01250102 53010 $

Čas: 04:57 (09:57 UTC)

Předpověď počasí

Zpráva byla vytvořena před 1 hodinou a 57 minutami, v 08:00 UTC
Předpověď platná od 30 v 08 UTC do 31 v 14 UTC
Severní vítr 9 kt
Viditelnost 10 km a více
Polojasno ve výšce 4000 ft

TAF: KBLV 300800Z 3008/3114 35009KT 9999 SCT040 QNH3013INS TX25/3021Z TN14/3010Z

Stav a předpovědi počasí z více než 4 000 letišť (zprávy METAR a TAF).

Červené a žluté tečky na mapě představují dostupné meteorologické stanice.

Když kurzor umístíte na tečku, zobrazí se název stanice.

Pak kliknutím zobrazíte stav a předpověď počasí.

Chcete-li změnit mapu, kliknutím na zelené tlačítko se znaménkem +mapu přiblížíte, kliknutím na zelené tlačítko se znaménkem – mapu oddálíte a kliknutím na zelené šipky přejdete na sousední mapy.


METAR-TAF: